Time;durP1;ratioP1;P1;durP2;ratioP2;P2;SDS_P1;SDS_P2;PMS_P1;PMS_P2;Temp;Humidity;BMP_temperature;BMP_pressure;BME280_temperature;BME280_humidity;BME280_pressure;Samples;Min_cycle;Max_cycle;Signal;HPM_P1;HPM_P2
2023/12/13 00:00:09;;;;;;;;;3.00;3.00;;;;;13.71;87.41;99546.50;5049703;28;45446;-69
2023/12/13 00:02:34;;;;;;;;;1.00;1.00;;;;;13.61;87.34;99527.47;5039169;28;45559;-69
2023/12/13 00:05:00;;;;;;;;;2.75;1.25;;;;;13.67;87.23;99540.50;5039507;28;45392;-69
2023/12/13 00:07:25;;;;;;;;;3.00;1.00;;;;;13.74;87.50;99550.84;5042329;28;45351;-69
2023/12/13 00:09:50;;;;;;;;;1.00;1.00;;;;;13.74;87.15;99554.38;5057681;28;58145;-69
2023/12/13 00:12:16;;;;;;;;;1.75;1.75;;;;;13.65;87.34;99537.06;5055721;28;46010;-69
2023/12/13 00:14:41;;;;;;;;;3.50;2.00;;;;;13.76;87.08;99562.31;5039408;28;45439;-69
2023/12/13 00:17:10;;;;;;;;;1.25;1.00;;;;;13.67;87.13;99542.31;5038282;28;63334;-69
2023/12/13 00:19:35;;;;;;;;;3.00;1.75;;;;;13.62;87.18;99536.41;5046680;28;45397;-69
2023/12/13 00:22:00;;;;;;;;;3.50;1.00;;;;;13.69;87.55;99548.44;5044308;28;65405;-69
2023/12/13 00:24:25;;;;;;;;;3.00;1.00;;;;;13.67;87.44;99545.84;5039219;28;45456;-69
2023/12/13 00:26:51;;;;;;;;;2.00;1.00;;;;;13.69;87.19;99551.13;5039246;28;45671;-69
2023/12/13 00:29:16;;;;;;;;;4.50;2.00;;;;;13.55;87.51;99527.88;5051550;28;61699;-69
2023/12/13 00:31:42;;;;;;;;;2.50;1.25;;;;;13.68;87.26;99544.91;5038652;28;46417;-69
2023/12/13 00:34:07;;;;;;;;;3.00;1.00;;;;;13.61;87.24;99532.84;5039188;28;45422;-69
2023/12/13 00:36:32;;;;;;;;;3.00;1.75;;;;;13.65;87.16;99541.56;5032094;28;50951;-69
2023/12/13 00:38:58;;;;;;;;;2.75;1.25;;;;;13.55;87.05;99527.88;5059123;28;45363;-69
2023/12/13 00:41:24;;;;;;;;;1.75;1.75;;;;;13.49;87.16;99517.53;5056406;28;45415;-69
2023/12/13 00:43:49;;;;;;;;;3.00;2.00;;;;;13.56;87.23;99526.91;5038955;28;45324;-69
2023/12/13 00:46:26;;;;;;;;;1.00;1.00;;;;;13.49;87.02;99514.88;5038906;28;45425;-69
2023/12/13 00:48:51;;;;;;;;;3.00;2.00;;;;;13.51;87.36;99518.31;5047693;28;46385;-69
2023/12/13 00:51:18;;;;;;;;;2.50;1.00;;;;;13.51;87.22;99513.81;5044765;28;57967;-69
2023/12/13 00:53:43;;;;;;;;;5.75;2.00;;;;;13.48;87.22;99510.44;5049377;28;45334;-69
2023/12/13 00:56:09;;;;;;;;;2.00;1.25;;;;;13.48;87.26;99507.75;5039726;28;45308;-69
2023/12/13 00:58:34;;;;;;;;;2.25;1.75;;;;;13.45;86.91;99505.31;5050860;28;45503;-69
2023/12/13 01:01:00;;;;;;;;;1.50;1.00;;;;;13.42;87.14;99498.31;5044997;28;55128;-69
2023/12/13 01:03:25;;;;;;;;;2.00;1.00;;;;;13.53;87.03;99514.56;5042484;28;45324;-69
2023/12/13 01:05:51;;;;;;;;;1.25;1.25;;;;;13.47;86.79;99503.38;5042045;28;45359;-69
2023/12/13 01:08:17;;;;;;;;;4.00;2.75;;;;;13.52;87.13;99517.34;5041932;28;45548;-69
2023/12/13 01:10:43;;;;;;;;;2.00;2.00;;;;;13.48;86.87;99511.31;5039232;28;47986;-68
2023/12/13 01:13:08;;;;;;;;;4.00;2.00;;;;;13.40;86.95;99488.63;5052647;28;45257;-69
2023/12/13 01:15:33;;;;;;;;;1.00;1.00;;;;;13.51;86.98;99510.25;5036820;28;56582;-69
2023/12/13 01:17:59;;;;;;;;;2.00;1.00;;;;;13.50;86.66;99511.25;5041824;28;45384;-69
2023/12/13 01:20:24;;;;;;;;;2.75;1.00;;;;;13.53;87.04;99516.38;5069525;28;45303;-69
2023/12/13 01:22:49;;;;;;;;;5.00;1.25;;;;;13.51;86.85;99511.13;5044013;28;45388;-69
2023/12/13 01:25:15;;;;;;;;;1.00;1.00;;;;;13.54;86.69;99512.75;5061613;28;45367;-69
2023/12/13 01:27:40;;;;;;;;;4.25;3.00;;;;;13.52;86.82;99509.31;5031527;28;45248;-69
2023/12/13 01:30:08;;;;;;;;;1.75;1.00;;;;;13.47;86.61;99506.91;5060935;28;50771;-69
2023/12/13 01:32:33;;;;;;;;;3.00;3.00;;;;;13.45;86.61;99502.63;5041743;28;45403;-69
2023/12/13 01:34:59;;;;;;;;;1.50;1.00;;;;;13.49;86.19;99510.34;5043036;28;45497;-69
2023/12/13 01:37:24;;;;;;;;;1.50;0.00;;;;;13.45;86.43;99508.84;5041772;28;45335;-69
2023/12/13 01:39:49;;;;;;;;;2.50;1.00;;;;;13.24;86.42;99464.63;5059563;28;45979;-69
2023/12/13 01:42:15;;;;;;;;;2.00;0.00;;;;;13.36;86.20;99487.13;5041356;28;45388;-68
2023/12/13 01:44:41;;;;;;;;;4.25;1.00;;;;;13.39;85.83;99494.97;5041387;28;45338;-69
2023/12/13 01:47:07;;;;;;;;;2.00;2.00;;;;;13.42;86.24;99494.78;5025557;28;45526;-69
2023/12/13 01:49:32;;;;;;;;;1.25;0.00;;;;;13.24;85.90;99461.94;5041495;28;46241;-69
2023/12/13 01:51:58;;;;;;;;;3.00;0.00;;;;;13.43;85.99;99500.03;5049329;28;45367;-69
2023/12/13 01:54:24;;;;;;;;;0.25;0.25;;;;;13.39;86.01;99497.66;5047203;28;45308;-69
2023/12/13 01:56:51;;;;;;;;;3.75;2.50;;;;;13.30;86.05;99483.00;5027798;28;45578;-69
2023/12/13 01:59:17;;;;;;;;;1.00;1.00;;;;;13.41;85.67;99503.75;5060040;28;45966;-69
2023/12/13 02:01:42;;;;;;;;;1.50;1.50;;;;;13.31;85.97;99484.69;5041371;28;45365;-69
2023/12/13 02:04:11;;;;;;;;;2.00;0.50;;;;;13.37;85.85;99496.91;5041379;28;45426;-69
2023/12/13 02:06:37;;;;;;;;;1.00;1.00;;;;;13.35;85.47;99502.34;5040983;28;45599;-69
2023/12/13 02:09:03;;;;;;;;;1.75;1.00;;;;;13.31;85.79;99504.34;5036940;28;52770;-69
2023/12/13 02:11:28;;;;;;;;;0.00;0.00;;;;;13.34;86.04;99508.66;5052032;28;45326;-69
2023/12/13 02:13:55;;;;;;;;;4.25;1.00;;;;;13.34;85.82;99511.34;5041163;28;45261;-69
2023/12/13 02:16:20;;;;;;;;;1.50;1.00;;;;;13.31;85.91;99515.06;5040792;28;45316;-69
2023/12/13 02:18:45;;;;;;;;;1.75;1.00;;;;;13.30;85.92;99505.28;5041198;28;46117;-69
2023/12/13 02:21:10;;;;;;;;;5.00;1.00;;;;;13.24;85.31;99497.63;5054355;28;45532;-69
2023/12/13 02:23:37;;;;;;;;;1.00;1.00;;;;;13.25;85.50;99498.50;5040663;28;49520;-69
2023/12/13 02:26:05;;;;;;;;;4.75;2.00;;;;;13.25;85.42;99499.34;5047912;28;45496;-69
2023/12/13 02:28:30;;;;;;;;;1.50;0.75;;;;;13.23;85.67;99501.28;5042805;28;47666;-69
2023/12/13 02:30:58;;;;;;;;;3.00;1.50;;;;;13.18;85.56;99491.78;5053051;28;45467;-69
2023/12/13 02:33:25;;;;;;;;;2.00;0.25;;;;;13.20;85.60;99498.78;5054386;28;45427;-69
2023/12/13 02:35:52;;;;;;;;;4.00;2.00;;;;;13.20;85.66;99497.91;5040751;28;45435;-69
2023/12/13 02:38:17;;;;;;;;;3.00;1.75;;;;;13.14;85.38;99499.16;5034364;28;48154;-69
2023/12/13 02:40:43;;;;;;;;;5.00;1.25;;;;;13.16;85.62;99499.94;5051375;28;61186;-69
2023/12/13 02:43:08;;;;;;;;;3.00;2.00;;;;;13.09;85.36;99491.41;5037443;28;58602;-69
2023/12/13 02:45:33;;;;;;;;;4.50;1.50;;;;;13.11;85.84;99491.31;5035187;28;45896;-69
2023/12/13 02:47:59;;;;;;;;;6.50;2.00;;;;;13.05;85.47;99484.53;5046217;28;45441;-69
2023/12/13 02:50:25;;;;;;;;;5.75;2.00;;;;;13.07;85.19;99485.28;5052180;28;45384;-69
2023/12/13 02:52:50;;;;;;;;;3.00;2.00;;;;;13.08;85.26;99478.09;5054104;28;45377;-69
2023/12/13 02:55:16;;;;;;;;;1.50;1.25;;;;;13.10;85.31;99481.56;5040383;28;45475;-69
2023/12/13 02:57:41;;;;;;;;;1.00;1.00;;;;;13.07;85.16;99476.41;5057307;28;46343;-69
2023/12/13 03:00:08;;;;;;;;;2.50;2.00;;;;;13.06;85.29;99474.66;5053926;28;45364;-69
2023/12/13 03:02:34;;;;;;;;;1.25;0.00;;;;;12.95;85.37;99464.66;5058989;28;45525;-69
2023/12/13 03:05:01;;;;;;;;;3.00;2.00;;;;;13.02;85.65;99481.19;5028461;28;45653;-69
2023/12/13 03:07:27;;;;;;;;;2.25;0.00;;;;;12.94;84.81;99463.75;5038120;28;47211;-69
2023/12/13 03:09:52;;;;;;;;;0.00;0.00;;;;;12.96;85.05;99469.03;5060032;28;45303;-69
2023/12/13 03:12:18;;;;;;;;;3.00;1.25;;;;;12.93;85.14;99464.75;5058993;28;45916;-69
2023/12/13 03:14:43;;;;;;;;;1.75;0.25;;;;;12.89;85.29;99449.81;5051060;28;45441;-69
2023/12/13 03:17:08;;;;;;;;;0.00;0.00;;;;;12.93;85.21;99461.19;5039683;28;56177;-69
2023/12/13 03:19:33;;;;;;;;;2.00;1.00;;;;;12.93;85.26;99454.03;5047371;28;49760;-69
2023/12/13 03:21:59;;;;;;;;;1.25;1.00;;;;;12.84;85.22;99449.22;5037882;28;51095;-69
2023/12/13 03:24:24;;;;;;;;;1.00;0.75;;;;;12.90;85.16;99461.41;5073553;28;45458;-69
2023/12/13 03:26:49;;;;;;;;;3.00;1.00;;;;;12.83;85.01;99452.88;5045769;28;46761;-68
2023/12/13 03:29:15;;;;;;;;;1.75;0.75;;;;;12.86;85.22;99458.03;5029057;28;47892;-68
2023/12/13 03:31:40;;;;;;;;;1.00;1.00;;;;;12.85;85.05;99459.00;5037915;28;45432;-69
2023/12/13 03:34:06;;;;;;;;;1.25;0.25;;;;;12.77;85.45;99440.72;5058438;28;55618;-69
2023/12/13 03:36:31;;;;;;;;;2.50;1.00;;;;;12.84;84.87;99446.56;5046006;28;45936;-69
2023/12/13 03:38:56;;;;;;;;;1.50;0.75;;;;;12.85;85.17;99442.94;5051523;28;45458;-69
2023/12/13 03:41:22;;;;;;;;;1.00;1.00;;;;;12.83;84.96;99439.50;5028060;28;45464;-69
2023/12/13 03:43:47;;;;;;;;;0.00;0.00;;;;;12.81;85.33;99435.19;5037155;28;45607;-69
2023/12/13 03:46:12;;;;;;;;;2.25;1.50;;;;;12.77;85.21;99440.72;5045399;28;65427;-69
2023/12/13 03:48:38;;;;;;;;;2.00;1.00;;;;;12.81;85.54;99441.38;5039652;28;46009;-68
2023/12/13 03:51:04;;;;;;;;;2.25;1.00;;;;;12.79;85.38;99444.16;5039949;28;45498;-69
2023/12/13 03:53:30;;;;;;;;;2.00;1.00;;;;;12.76;85.52;99432.78;5050173;28;45699;-69
2023/12/13 03:55:56;;;;;;;;;3.75;1.50;;;;;12.78;85.29;99429.06;5038923;28;46541;-68
2023/12/13 03:58:21;;;;;;;;;2.50;1.75;;;;;12.85;85.48;99442.94;5057197;28;45304;-69
2023/12/13 04:00:46;;;;;;;;;2.75;2.50;;;;;12.79;85.15;99438.78;5041492;28;45501;-69
2023/12/13 04:03:11;;;;;;;;;2.50;1.00;;;;;12.83;85.35;99446.66;5036174;28;45506;-68
2023/12/13 04:05:37;;;;;;;;;1.00;1.00;;;;;12.82;85.12;99442.25;5058675;28;45410;-69
2023/12/13 04:08:02;;;;;;;;;1.75;1.00;;;;;12.68;85.23;99413.66;5039602;28;45412;-69
2023/12/13 04:10:28;;;;;;;;;3.25;1.00;;;;;12.74;85.49;99435.53;5053438;28;45470;-69
2023/12/13 04:12:53;;;;;;;;;1.00;1.00;;;;;12.74;85.23;99429.34;5056426;28;45595;-68
2023/12/13 04:15:19;;;;;;;;;2.00;1.00;;;;;12.67;85.45;99428.88;5045179;28;46093;-68
2023/12/13 04:17:44;;;;;;;;;3.00;2.00;;;;;12.64;85.52;99428.19;5042805;28;45348;-68
2023/12/13 04:20:10;;;;;;;;;1.00;1.00;;;;;12.62;85.70;99430.13;5051554;28;45451;-69
2023/12/13 04:22:35;;;;;;;;;1.25;1.25;;;;;12.66;85.71;99437.00;5039981;28;45529;-69
2023/12/13 04:25:01;;;;;;;;;2.50;2.00;;;;;12.69;85.87;99434.13;5056127;28;46211;-69
2023/12/13 04:27:26;;;;;;;;;0.50;0.00;;;;;12.69;85.66;99437.66;5020664;28;45518;-69
2023/12/13 04:29:52;;;;;;;;;2.75;1.75;;;;;12.63;85.87;99429.13;5051627;28;45404;-69
2023/12/13 04:32:17;;;;;;;;;4.50;0.50;;;;;12.47;85.48;99397.13;5036303;28;45806;-68
2023/12/13 04:34:43;;;;;;;;;3.25;1.00;;;;;12.62;85.54;99430.13;5051220;28;53762;-68
2023/12/13 04:37:08;;;;;;;;;3.25;0.75;;;;;12.58;85.79;99424.94;5039697;28;45474;-68
2023/12/13 04:39:34;;;;;;;;;1.25;1.25;;;;;12.60;85.35;99423.03;5055870;28;45446;-68
2023/12/13 04:41:59;;;;;;;;;1.25;1.25;;;;;12.60;85.56;99427.53;5039450;28;45525;-68
2023/12/13 04:44:27;;;;;;;;;5.75;2.00;;;;;12.64;85.78;99430.88;5037436;28;46854;-68
2023/12/13 04:46:54;;;;;;;;;3.25;2.00;;;;;12.65;85.70;99435.28;5052121;28;45320;-68
2023/12/13 04:49:19;;;;;;;;;2.50;2.25;;;;;12.57;85.88;99425.88;5038937;28;45493;-69
2023/12/13 04:51:44;;;;;;;;;1.00;1.00;;;;;12.59;85.80;99433.81;5045137;28;52033;-69
2023/12/13 04:54:10;;;;;;;;;2.75;1.25;;;;;12.60;85.48;99422.19;5042190;28;46155;-69
2023/12/13 04:56:35;;;;;;;;;3.50;2.00;;;;;12.59;85.55;99425.78;5071565;28;45370;-69
2023/12/13 04:59:00;;;;;;;;;6.50;1.50;;;;;12.63;85.84;99426.47;5058854;28;45474;-68
2023/12/13 05:01:26;;;;;;;;;1.25;1.00;;;;;12.51;85.06;99409.34;5033776;28;64054;-68
2023/12/13 05:03:51;;;;;;;;;1.00;1.00;;;;;12.60;85.54;99422.19;5044573;28;46175;-68
2023/12/13 05:06:16;;;;;;;;;3.00;2.00;;;;;12.54;85.73;99422.53;5045081;28;45351;-69
2023/12/13 05:08:42;;;;;;;;;1.75;1.75;;;;;12.51;85.83;99404.88;5046109;28;45382;-68
2023/12/13 05:11:07;;;;;;;;;3.00;1.00;;;;;12.55;85.72;99410.91;5057407;28;47138;-69
2023/12/13 05:13:32;;;;;;;;;3.75;2.00;;;;;12.59;85.77;99423.13;5044505;28;58824;-68
2023/12/13 05:15:57;;;;;;;;;1.00;1.00;;;;;12.55;85.57;99416.25;5051516;28;56346;-69
2023/12/13 05:18:23;;;;;;;;;1.00;1.00;;;;;12.58;85.59;99413.38;5038648;28;45521;-68
2023/12/13 05:20:49;;;;;;;;;1.00;1.00;;;;;12.54;85.56;99407.34;5051799;28;45805;-68
2023/12/13 05:23:14;;;;;;;;;4.00;1.25;;;;;12.59;85.60;99415.94;5030049;28;47432;-68
2023/12/13 05:25:40;;;;;;;;;2.00;2.00;;;;;12.61;85.43;99413.16;5040574;28;45426;-68
2023/12/13 05:28:05;;;;;;;;;2.25;2.00;;;;;12.60;85.54;99414.16;5031068;28;45519;-68
2023/12/13 05:30:31;;;;;;;;;2.00;1.00;;;;;12.59;85.74;99412.41;5054601;28;45307;-68
2023/12/13 05:32:56;;;;;;;;;2.00;1.00;;;;;12.58;85.31;99408.88;5027073;28;56266;-68
2023/12/13 05:35:21;;;;;;;;;1.75;1.00;;;;;12.59;85.42;99412.41;5054653;28;45324;-68
2023/12/13 05:37:47;;;;;;;;;3.00;1.75;;;;;12.49;85.58;99403.22;5030727;28;45545;-68
2023/12/13 05:40:12;;;;;;;;;3.00;1.50;;;;;12.60;85.56;99416.81;5054375;28;45394;-68
2023/12/13 05:42:39;;;;;;;;;3.25;1.50;;;;;12.58;85.12;99408.03;5029289;28;48201;-68
2023/12/13 05:45:05;;;;;;;;;1.00;0.00;;;;;12.56;85.43;99408.13;5040855;28;45542;-68
2023/12/13 05:47:30;;;;;;;;;2.25;1.75;;;;;12.43;84.92;99385.75;5023758;28;45403;-68
2023/12/13 05:49:56;;;;;;;;;3.00;3.00;;;;;12.48;85.32;99397.03;5041574;28;45353;-68
2023/12/13 05:52:22;;;;;;;;;5.50;3.00;;;;;12.46;85.59;99396.25;5049467;28;45568;-68
2023/12/13 05:54:47;;;;;;;;;5.75;4.75;;;;;12.52;85.60;99398.56;5024974;28;45356;-68
2023/12/13 05:57:12;;;;;;;;;4.50;3.50;;;;;12.47;85.72;99389.94;5049047;28;54249;-68
2023/12/13 05:59:38;;;;;;;;;4.25;3.00;;;;;12.50;85.42;99384.41;5056474;28;45458;-68
2023/12/13 06:02:03;;;;;;;;;3.00;3.00;;;;;12.45;85.61;99381.16;5041443;28;45359;-68
2023/12/13 06:04:28;;;;;;;;;4.75;2.50;;;;;12.45;85.51;99380.31;5045803;28;45300;-69
2023/12/13 06:06:54;;;;;;;;;5.50;3.00;;;;;12.48;85.72;99374.75;5043457;28;45336;-69
2023/12/13 06:09:19;;;;;;;;;2.25;2.00;;;;;12.42;85.42;99376.84;5060948;28;45372;-68
2023/12/13 06:11:44;;;;;;;;;4.00;3.00;;;;;12.45;85.47;99383.84;5061130;28;46006;-69
2023/12/13 06:14:10;;;;;;;;;2.25;1.75;;;;;12.41;85.19;99383.16;5042518;28;45485;-69
2023/12/13 06:16:35;;;;;;;;;2.00;1.00;;;;;12.40;85.54;99386.78;5046097;28;45563;-69
2023/12/13 06:19:00;;;;;;;;;2.00;1.75;;;;;12.39;85.49;99385.06;5037524;28;49602;-69
2023/12/13 06:21:26;;;;;;;;;2.50;1.00;;;;;12.40;85.48;99388.63;5051881;28;45527;-69
2023/12/13 06:23:51;;;;;;;;;1.75;1.00;;;;;12.41;85.30;99396.56;5040500;28;45253;-69
2023/12/13 06:26:17;;;;;;;;;1.25;1.00;;;;;12.41;85.12;99391.19;5060302;28;45401;-69
2023/12/13 06:28:42;;;;;;;;;2.25;1.00;;;;;12.35;85.48;99386.22;5044693;28;45380;-69
2023/12/13 06:31:07;;;;;;;;;3.00;1.50;;;;;12.38;85.70;99396.72;5043049;28;50677;-69
2023/12/13 06:33:33;;;;;;;;;1.75;0.25;;;;;12.39;84.92;99393.09;5044392;28;45309;-69
2023/12/13 06:35:58;;;;;;;;;2.00;2.00;;;;;12.20;85.38;99361.25;5025898;28;45630;-69
2023/12/13 06:38:23;;;;;;;;;1.75;1.75;;;;;12.31;85.13;99386.50;5064502;28;45961;-69
2023/12/13 06:40:49;;;;;;;;;3.75;2.50;;;;;12.38;84.83;99401.22;5056947;28;45509;-69
2023/12/13 06:43:14;;;;;;;;;5.50;2.50;;;;;12.36;85.16;99401.31;5045138;28;45352;-69
2023/12/13 06:45:39;;;;;;;;;5.25;3.00;;;;;12.28;85.03;99394.69;5054172;28;45460;-68
2023/12/13 06:48:06;;;;;;;;;3.25;3.25;;;;;12.27;84.96;99395.66;5046749;28;45515;-68
2023/12/13 06:50:32;;;;;;;;;6.00;5.00;;;;;12.31;85.35;99413.25;5034338;28;45624;-68
2023/12/13 06:52:57;;;;;;;;;8.75;5.50;;;;;12.28;85.03;99402.72;5053157;28;45408;-68
2023/12/13 06:55:22;;;;;;;;;14.25;12.00;;;;;12.27;84.93;99407.22;5046775;28;45375;-68
2023/12/13 06:57:48;;;;;;;;;14.25;12.00;;;;;12.28;85.14;99410.75;5047067;28;52303;-68
2023/12/13 07:00:14;;;;;;;;;11.00;10.00;;;;;12.29;84.89;99410.66;5054088;28;45387;-68
2023/12/13 07:02:40;;;;;;;;;10.50;9.25;;;;;12.26;84.92;99416.19;5043389;28;45257;-68
2023/12/13 07:05:07;;;;;;;;;10.00;8.00;;;;;12.18;85.09;99407.78;5060461;28;45293;-68
2023/12/13 07:07:33;;;;;;;;;6.00;6.00;;;;;12.11;84.91;99393.03;5061214;28;45261;-68
2023/12/13 07:09:58;;;;;;;;;7.50;6.00;;;;;12.11;84.62;99401.94;5057777;28;46172;-68
2023/12/13 07:12:27;;;;;;;;;5.00;5.00;;;;;12.09;85.01;99402.97;5049203;28;45425;-67
2023/12/13 07:14:53;;;;;;;;;8.00;5.75;;;;;12.09;85.14;99403.84;5046462;28;45472;-68
2023/12/13 07:17:19;;;;;;;;;6.00;5.00;;;;;12.02;85.13;99395.31;5038473;28;45653;-68
2023/12/13 07:19:44;;;;;;;;;5.75;5.00;;;;;12.05;85.28;99403.16;5046801;28;45469;-68
2023/12/13 07:22:11;;;;;;;;;5.00;5.00;;;;;12.11;85.32;99411.78;5051653;28;45771;-68
2023/12/13 07:24:36;;;;;;;;;9.25;7.00;;;;;12.09;85.15;99400.31;5039051;28;58166;-67
2023/12/13 07:27:02;;;;;;;;;11.00;8.50;;;;;12.14;85.39;99412.44;5038230;28;57409;-68
2023/12/13 07:29:29;;;;;;;;;10.25;7.00;;;;;12.14;85.13;99414.25;5036500;28;47458;-68
2023/12/13 07:31:55;;;;;;;;;5.00;4.00;;;;;12.17;85.22;99411.41;5046867;28;45393;-69
2023/12/13 07:34:20;;;;;;;;;5.75;4.00;;;;;12.19;85.02;99406.81;5037671;28;46015;-68
2023/12/13 07:36:48;;;;;;;;;4.00;3.00;;;;;12.21;85.16;99421.84;5030752;28;45507;-68
2023/12/13 07:39:14;;;;;;;;;4.00;3.25;;;;;12.22;85.18;99420.88;5034722;28;47144;-68
2023/12/13 07:41:40;;;;;;;;;7.25;4.25;;;;;12.22;84.97;99422.69;5050810;28;45394;-69
2023/12/13 07:44:06;;;;;;;;;2.00;2.00;;;;;12.21;84.93;99432.53;5030037;28;45537;-68
2023/12/13 07:46:31;;;;;;;;;4.50;4.50;;;;;12.14;85.00;99433.84;5043342;28;45341;-69
2023/12/13 07:49:03;;;;;;;;;5.75;3.50;;;;;12.11;84.97;99428.69;5048968;28;45697;-67
2023/12/13 07:51:29;;;;;;;;;4.25;2.25;;;;;12.12;85.19;99429.56;5042661;28;45395;-68
2023/12/13 07:53:54;;;;;;;;;3.00;2.25;;;;;12.11;85.00;99431.38;5052654;28;45426;-68
2023/12/13 07:56:21;;;;;;;;;3.50;2.00;;;;;12.19;85.07;99449.63;5044137;28;45479;-67
2023/12/13 07:58:46;;;;;;;;;5.00;1.25;;;;;12.20;84.97;99441.50;5052971;28;45653;-67
2023/12/13 08:01:14;;;;;;;;;0.25;0.25;;;;;12.16;84.93;99437.31;5043071;28;45320;-67
2023/12/13 08:03:39;;;;;;;;;2.00;1.00;;;;;12.14;84.64;99436.53;5041015;28;45425;-68
2023/12/13 08:06:11;;;;;;;;;3.75;1.25;;;;;12.23;84.54;99454.72;5036156;28;45514;-68
2023/12/13 08:08:39;;;;;;;;;2.00;2.00;;;;;11.96;84.24;99416.22;5038947;28;46080;-68
2023/12/13 08:11:04;;;;;;;;;2.75;1.00;;;;;12.19;84.77;99455.81;5057957;28;45341;-67
2023/12/13 08:13:29;;;;;;;;;1.75;0.50;;;;;12.20;84.55;99462.06;5046259;28;45311;-68
2023/12/13 08:15:55;;;;;;;;;4.25;1.00;;;;;12.20;84.44;99454.88;5038603;28;54098;-68
2023/12/13 08:18:20;;;;;;;;;2.00;0.75;;;;;12.24;84.48;99471.63;5047176;28;45379;-67
2023/12/13 08:20:45;;;;;;;;;1.75;1.00;;;;;12.15;84.28;99454.31;5054204;28;57722;-67
2023/12/13 08:23:11;;;;;;;;;0.75;0.00;;;;;12.16;84.45;99461.38;5028954;28;45435;-67
2023/12/13 08:25:36;;;;;;;;;1.00;1.00;;;;;12.22;84.82;99473.53;5050006;28;46081;-67
2023/12/13 08:28:03;;;;;;;;;2.00;2.00;;;;;12.24;84.90;99482.31;5037673;28;46103;-68
2023/12/13 08:30:29;;;;;;;;;2.00;1.00;;;;;12.21;84.89;99471.78;5036014;28;45413;-68
2023/12/13 08:32:54;;;;;;;;;3.00;1.25;;;;;12.21;84.69;99482.50;5039774;28;45446;-68
2023/12/13 08:35:19;;;;;;;;;1.00;0.00;;;;;12.20;84.54;99484.31;5044123;28;45313;-67
2023/12/13 08:37:44;;;;;;;;;1.00;1.00;;;;;12.10;84.47;99472.44;5033045;28;48134;-67
2023/12/13 08:40:10;;;;;;;;;1.50;0.25;;;;;12.18;84.61;99478.19;5047530;28;47381;-67
2023/12/13 08:42:37;;;;;;;;;0.00;0.00;;;;;12.15;84.34;99474.84;5029981;28;45325;-68
2023/12/13 08:45:02;;;;;;;;;1.50;0.25;;;;;12.17;84.65;99478.28;5055068;28;45375;-68
2023/12/13 08:47:28;;;;;;;;;0.25;0.25;;;;;12.22;84.65;99490.44;5053146;28;45551;-68
2023/12/13 08:49:54;;;;;;;;;1.00;1.00;;;;;12.13;84.62;99476.72;5052132;28;45237;-68
2023/12/13 08:52:20;;;;;;;;;1.00;1.00;;;;;12.17;84.92;99479.13;5047246;28;45507;-67
2023/12/13 08:54:46;;;;;;;;;2.00;0.25;;;;;12.21;84.40;99488.72;5032028;28;45628;-67
2023/12/13 08:57:11;;;;;;;;;1.50;1.00;;;;;11.96;84.52;99454.53;5051628;28;46188;-68
2023/12/13 08:59:37;;;;;;;;;1.50;1.50;;;;;11.95;84.76;99452.81;5044163;28;45533;-67
2023/12/13 09:02:02;;;;;;;;;0.50;0.50;;;;;12.02;84.72;99466.69;5051285;28;45452;-67
2023/12/13 09:04:28;;;;;;;;;2.00;0.50;;;;;12.03;84.29;99469.25;5042639;28;45426;-67
2023/12/13 09:06:53;;;;;;;;;0.50;0.50;;;;;12.18;84.93;99493.41;5020609;28;47239;-67
2023/12/13 09:09:18;;;;;;;;;1.25;1.25;;;;;12.13;84.40;99479.41;5042353;28;45528;-67
2023/12/13 09:11:44;;;;;;;;;1.00;1.00;;;;;12.04;84.27;99464.78;5050750;28;45504;-68
2023/12/13 09:14:10;;;;;;;;;0.75;0.75;;;;;12.05;84.58;99475.38;5039338;28;45261;-68
2023/12/13 09:16:35;;;;;;;;;2.25;0.25;;;;;12.27;84.56;99513.41;5038069;28;45516;-69
2023/12/13 09:19:01;;;;;;;;;1.00;1.00;;;;;12.28;84.32;99510.63;5043573;28;45467;-69
2023/12/13 09:21:26;;;;;;;;;2.00;1.00;;;;;12.06;84.40;99465.53;5051454;28;45375;-68
2023/12/13 09:23:52;;;;;;;;;1.00;1.00;;;;;12.34;84.22;99506.72;5041893;28;45575;-68
2023/12/13 09:26:17;;;;;;;;;1.50;1.00;;;;;12.19;84.22;99477.22;5033000;28;47200;-68
2023/12/13 09:28:42;;;;;;;;;1.50;1.00;;;;;12.33;83.58;99496.94;5046469;28;45324;-68
2023/12/13 09:31:08;;;;;;;;;2.50;1.00;;;;;12.11;83.24;99454.56;5054152;28;45363;-68
2023/12/13 09:33:33;;;;;;;;;1.00;1.00;;;;;12.39;83.68;99507.31;5054544;28;45518;-68
2023/12/13 09:35:59;;;;;;;;;1.00;1.00;;;;;12.43;83.75;99508.84;5051269;28;49729;-68
2023/12/13 09:38:24;;;;;;;;;0.00;0.00;;;;;12.26;83.91;99469.69;5048713;28;45395;-68
2023/12/13 09:40:51;;;;;;;;;1.00;1.00;;;;;12.25;83.72;99480.53;5050633;28;45959;-67
2023/12/13 09:43:16;;;;;;;;;2.75;1.75;;;;;12.26;83.52;99471.53;5046824;28;45451;-68
2023/12/13 09:45:44;;;;;;;;;2.50;1.50;;;;;12.41;83.32;99497.34;5053789;28;45457;-67
2023/12/13 09:48:12;;;;;;;;;3.00;0.50;;;;;12.38;83.69;99494.91;5047600;28;45273;-67
2023/12/13 09:50:39;;;;;;;;;3.00;1.00;;;;;12.36;83.51;99492.31;5030304;28;45412;-67
2023/12/13 09:53:06;;;;;;;;;1.00;1.00;;;;;12.35;83.47;99497.75;5053736;28;45486;-68
2023/12/13 09:55:32;;;;;;;;;1.00;1.00;;;;;12.33;83.51;99499.63;5031438;28;47467;-69
2023/12/13 09:57:57;;;;;;;;;0.75;0.75;;;;;12.47;83.63;99529.13;5041987;28;45391;-70
2023/12/13 10:00:22;;;;;;;;;4.00;2.00;;;;;12.35;83.50;99497.75;5060391;28;45366;-70
2023/12/13 10:02:48;;;;;;;;;2.00;2.00;;;;;12.38;83.24;99509.13;5049632;28;45448;-70
2023/12/13 10:05:16;;;;;;;;;1.25;1.25;;;;;12.41;83.26;99508.94;5033379;28;47069;-70
2023/12/13 10:07:42;;;;;;;;;1.00;1.00;;;;;12.39;83.20;99502.81;5028847;28;45335;-70
2023/12/13 10:10:08;;;;;;;;;1.00;1.00;;;;;12.66;83.16;99544.06;5053080;28;45573;-70
2023/12/13 10:12:35;;;;;;;;;1.75;1.75;;;;;12.50;83.32;99515.56;5055494;28;45498;-70
2023/12/13 10:15:11;;;;;;;;;3.00;1.00;;;;;12.52;83.62;99513.66;5035270;28;47918;-70
2023/12/13 10:17:37;;;;;;;;;1.25;1.25;;;;;12.65;83.18;99532.50;5043580;28;45648;-70
2023/12/13 10:20:03;;;;;;;;;0.25;0.25;;;;;12.52;83.46;99513.66;5052963;28;45439;-70
2023/12/13 10:22:29;;;;;;;;;0.75;0.25;;;;;12.74;83.36;99539.97;5042976;28;45406;-70
2023/12/13 10:24:56;;;;;;;;;3.25;2.75;;;;;12.59;83.19;99514.13;5040755;28;45397;-70
2023/12/13 10:27:22;;;;;;;;;3.00;1.00;;;;;12.86;83.31;99562.47;5040393;28;45532;-70
2023/12/13 10:29:47;;;;;;;;;1.25;1.25;;;;;12.61;83.28;99522.94;5034824;28;45373;-70
2023/12/13 10:32:12;;;;;;;;;1.00;0.00;;;;;12.63;82.88;99522.84;5055027;28;45509;-70
2023/12/13 10:34:38;;;;;;;;;0.75;0.75;;;;;12.68;82.69;99528.78;5049148;28;46417;-70
2023/12/13 10:37:06;;;;;;;;;2.50;1.50;;;;;12.73;82.95;99537.38;5045070;28;45573;-70
2023/12/13 10:39:32;;;;;;;;;4.00;1.00;;;;;12.79;82.79;99543.22;5054707;28;45387;-70
2023/12/13 10:42:00;;;;;;;;;0.25;0.00;;;;;12.76;82.75;99532.75;5027310;28;45558;-71
2023/12/13 10:44:31;;;;;;;;;1.00;1.00;;;;;12.70;82.91;99522.38;5055107;28;45714;-70
2023/12/13 10:46:59;;;;;;;;;1.00;1.00;;;;;12.74;83.04;99536.44;5032638;28;45591;-70
2023/12/13 10:49:24;;;;;;;;;2.25;2.00;;;;;12.81;83.13;99559.22;5050304;28;45372;-70
2023/12/13 10:51:51;;;;;;;;;2.25;1.00;;;;;12.77;82.78;99546.97;5058862;28;45504;-70
2023/12/13 10:54:17;;;;;;;;;4.75;1.25;;;;;12.92;82.39;99571.97;5036294;28;47176;-70
2023/12/13 10:56:43;;;;;;;;;2.50;0.00;;;;;12.82;82.20;99552.91;5036955;28;45482;-71
2023/12/13 10:59:10;;;;;;;;;2.00;2.00;;;;;12.66;82.75;99539.56;5055445;28;45477;-78
2023/12/13 11:01:39;;;;;;;;;2.00;2.00;;;;;12.92;82.84;99580.84;5032564;28;45664;-71
2023/12/13 11:04:09;;;;;;;;;1.25;1.25;;;;;12.67;82.68;99535.09;5046419;28;45513;-71
2023/12/13 11:06:36;;;;;;;;;0.00;0.00;;;;;12.92;82.78;99577.31;5058423;28;45783;-71
2023/12/13 11:09:17;;;;;;;;;1.00;0.75;;;;;12.75;82.16;99551.56;5050405;28;45505;-71
2023/12/13 11:11:42;;;;;;;;;1.50;1.50;;;;;12.83;82.15;99557.31;5039949;28;45425;-71
2023/12/13 11:14:09;;;;;;;;;0.50;0.50;;;;;12.85;81.94;99562.59;5044070;28;45574;-71
2023/12/13 11:16:39;;;;;;;;;1.00;1.00;;;;;12.82;82.15;99552.06;5046709;28;45611;-71
2023/12/13 11:19:05;;;;;;;;;3.00;3.00;;;;;12.92;82.04;99570.13;5043888;28;45299;-71
2023/12/13 11:21:33;;;;;;;;;2.25;1.50;;;;;13.06;82.17;99595.22;5032557;28;45483;-71
2023/12/13 11:24:22;;;;;;;;;2.00;1.50;;;;;13.09;82.06;99595.03;5042279;28;45722;-71
2023/12/13 11:26:50;;;;;;;;;2.50;2.00;;;;;12.86;81.81;99551.75;5028188;28;45349;-71